Terminal Aerodrome Forecast
Issued by NWS

Home | Current Version | Previous Version | Text Only | Print | Product List | Glossary On
Versions: 1 2 3 4 5 6 7 8 9 10 11 12 13 14 15 16 17 18 19 20 21 22 23 24 25 26 27 28 29 30 31 32 33 34 35
000
FTUS45 KGJT 202338
TAFEGE
TAF
KEGE 202338Z 2100/2124 25010KT P6SM FEW050 SCT080
     FM210300 11004KT P6SM SCT120
     FM210600 13006KT P6SM BKN080 WS020/24025KT
     FM211800 24012KT P6SM BKN120
      AMD LTD TO CLD VIS AND WIND 2105/2113=

USA.gov is the U.S. government's official web portal to all federal, state and local government web resources and services.